Time;durP1;ratioP1;P1;durP2;ratioP2;P2;SDS_P1;SDS_P2;PMS_P1;PMS_P2;Temp;Humidity;BMP_temperature;BMP_pressure;BME280_temperature;BME280_humidity;BME280_pressure;Samples;Min_cycle;Max_cycle;Signal;HPM_P1;HPM_P2
2023/02/25 00:01:22;;;;;;;29.95;18.98;;;;;;;8.29;69.03;94017.34;4209893;28;20135;-55
2023/02/25 00:03:24;;;;;;;32.55;19.70;;;;;;;8.28;68.57;94018.34;4206654;28;20485;-53
2023/02/25 00:05:26;;;;;;;35.35;19.25;;;;;;;8.22;68.18;94018.97;4200085;28;20127;-51
2023/02/25 00:07:32;;;;;;;28.88;18.42;;;;;;;8.16;69.18;94020.44;4212224;28;20094;-56
2023/02/25 00:09:34;;;;;;;33.03;18.58;;;;;;;8.10;69.57;94023.69;4199479;28;20128;-51
2023/02/25 00:11:35;;;;;;;30.90;18.98;;;;;;;8.12;68.99;94029.56;4189317;28;20048;-55
2023/02/25 00:13:39;;;;;;;28.98;18.20;;;;;;;8.15;69.49;94029.25;4196457;28;20411;-52
2023/02/25 00:15:40;;;;;;;35.53;19.80;;;;;;;8.19;68.92;94027.97;4192024;28;20056;-53
2023/02/25 00:17:42;;;;;;;33.25;18.20;;;;;;;8.20;68.57;94013.09;4199350;28;20080;-53
2023/02/25 00:19:44;;;;;;;35.30;20.25;;;;;;;8.24;68.80;94024.03;4195651;28;20110;-54
2023/02/25 00:21:46;;;;;;;29.40;19.25;;;;;;;8.26;68.99;94022.06;4191829;28;20041;-58
2023/02/25 00:23:49;;;;;;;35.42;19.25;;;;;;;8.27;68.23;94023.72;4206856;28;20059;-58
2023/02/25 00:26:00;;;;;;;36.38;21.10;;;;;;;8.29;68.52;94024.38;4213572;28;20102;-59
2023/02/25 00:28:05;;;;;;;37.33;22.08;;;;;;;8.27;68.64;94021.09;4207766;28;20104;-57
2023/02/25 00:30:09;;;;;;;38.53;22.40;;;;;;;8.30;68.30;94024.22;4190506;28;20052;-62
2023/02/25 00:32:11;;;;;;;42.70;21.55;;;;;;;8.30;68.46;94002.50;4203515;28;20044;-57
2023/02/25 00:34:13;;;;;;;38.65;21.73;;;;;;;8.31;68.60;94004.16;4199862;28;20054;-59
2023/02/25 00:36:21;;;;;;;37.30;21.80;;;;;;;8.30;68.24;94007.72;4196404;28;20044;-59
2023/02/25 00:38:23;;;;;;;33.97;20.90;;;;;;;8.29;68.24;94000.88;4205682;28;20131;-59
2023/02/25 00:40:25;;;;;;;34.50;21.15;;;;;;;8.28;68.21;94009.69;4191269;28;20053;-57
2023/02/25 00:42:27;;;;;;;35.78;19.65;;;;;;;8.24;67.85;94001.38;4179762;28;20052;-51
2023/02/25 00:44:28;;;;;;;36.08;20.33;;;;;;;8.23;68.78;93998.91;4191444;28;20105;-51
2023/02/25 00:46:30;;;;;;;36.53;19.95;;;;;;;8.24;68.45;93988.34;4196772;28;20441;-52
2023/02/25 00:48:32;;;;;;;30.58;19.17;;;;;;;8.24;68.38;93987.50;4196852;28;20059;-51
2023/02/25 00:50:34;;;;;;;35.35;18.83;;;;;;;8.25;68.60;93989.13;4191533;28;20049;-50
2023/02/25 00:52:36;;;;;;;34.13;19.10;;;;;;;8.16;68.40;93975.28;4179773;28;20041;-51
2023/02/25 00:54:38;;;;;;;29.98;18.92;;;;;;;8.14;68.11;93982.44;4185621;28;20587;-51
2023/02/25 00:56:40;;;;;;;31.20;18.42;;;;;;;8.13;68.80;93976.41;4192077;28;20111;-51
2023/02/25 00:58:43;;;;;;;34.90;18.63;;;;;;;8.14;68.40;93972.81;4179316;28;20045;-54
2023/02/25 01:00:44;;;;;;;31.35;18.17;;;;;;;8.15;68.25;93978.84;4179403;28;20103;-56
2023/02/25 01:02:55;;;;;;;30.23;18.05;;;;;;;8.18;68.55;93968.91;4178682;28;20053;-49
2023/02/25 01:04:56;;;;;;;29.05;17.48;;;;;;;8.17;68.76;93972.50;4198693;28;20127;-52
2023/02/25 01:06:58;;;;;;;30.55;17.83;;;;;;;8.17;68.15;93962.06;4183160;28;20128;-48
2023/02/25 01:09:00;;;;;;;36.65;19.40;;;;;;;8.17;68.52;93949.03;4179123;28;20044;-51
2023/02/25 01:11:35;;;;;;;32.08;17.40;;;;;;;8.11;68.39;93960.09;4192635;28;20086;-55
2023/02/25 01:13:36;;;;;;;30.67;18.63;;;;;;;8.07;68.53;93956.19;4164863;28;20101;-54
2023/02/25 01:15:38;;;;;;;30.27;18.40;;;;;;;7.92;69.00;93948.19;4202618;28;20049;-51
2023/02/25 01:17:40;;;;;;;28.13;17.60;;;;;;;7.88;69.04;93944.25;4177920;28;20053;-60
2023/02/25 01:19:41;;;;;;;31.20;17.02;;;;;;;7.89;69.57;93953.72;4190406;28;20055;-59
2023/02/25 01:21:45;;;;;;;27.85;16.65;;;;;;;7.96;69.04;93959.13;4194261;28;20102;-58
2023/02/25 01:23:59;;;;;;;30.92;18.88;;;;;;;8.03;68.51;93952.28;4195891;28;20075;-59
2023/02/25 01:26:08;;;;;;;31.08;16.75;;;;;;;7.97;68.82;93939.88;4180372;28;20053;-58
2023/02/25 01:28:13;;;;;;;30.20;17.95;;;;;;;7.95;69.13;93937.41;4186099;28;20056;-59
2023/02/25 01:30:15;;;;;;;26.75;17.17;;;;;;;7.97;68.92;93951.13;4206759;28;20056;-59
2023/02/25 01:32:17;;;;;;;29.17;16.92;;;;;;;7.84;69.47;93942.16;4184243;28;20519;-58
2023/02/25 01:34:19;;;;;;;32.13;17.20;;;;;;;7.85;69.22;93934.16;4212001;28;20102;-55
2023/02/25 01:36:25;;;;;;;28.05;16.02;;;;;;;7.87;68.80;93942.66;4212565;28;20050;-51
2023/02/25 01:38:27;;;;;;;26.60;17.13;;;;;;;7.86;69.11;93946.22;4203444;28;20049;-51
2023/02/25 01:40:32;;;;;;;31.92;16.83;;;;;;;7.90;69.10;93950.13;4203627;28;20051;-54
2023/02/25 01:42:34;;;;;;;32.58;17.40;;;;;;;7.90;69.02;93949.31;4211850;28;20559;-53
2023/02/25 01:45:10;;;;;;;25.95;16.27;;;;;;;7.96;69.03;93954.72;4211457;28;20079;-53
2023/02/25 01:47:19;;;;;;;30.13;16.52;;;;;;;7.94;68.70;93940.22;4211419;28;20056;-54
2023/02/25 01:49:42;;;;;;;27.00;15.98;;;;;;;7.94;69.47;93932.38;4210851;28;20048;-48
2023/02/25 01:51:47;;;;;;;27.85;17.20;;;;;;;7.88;68.87;93940.84;4212289;28;20514;-51
2023/02/25 01:53:48;;;;;;;30.73;16.42;;;;;;;7.83;68.44;93951.75;4212062;28;20048;-54
2023/02/25 01:55:50;;;;;;;30.98;16.67;;;;;;;7.80;69.58;93936.41;4211799;28;20056;-51
2023/02/25 01:57:52;;;;;;;31.02;15.85;;;;;;;7.84;69.65;93947.34;4211565;28;20493;-52
2023/02/25 01:59:54;;;;;;;27.88;15.52;;;;;;;7.83;69.03;93943.94;4209835;28;20052;-55
2023/02/25 02:01:56;;;;;;;29.35;15.30;;;;;;;7.89;69.48;93955.50;4210481;28;20052;-55
2023/02/25 02:03:57;;;;;;;26.80;14.60;;;;;;;7.95;69.10;93950.47;4208677;28;20059;-54
2023/02/25 02:06:29;;;;;;;29.48;15.15;;;;;;;7.99;68.33;93946.56;4213958;28;20101;-54
2023/02/25 02:08:32;;;;;;;29.83;15.85;;;;;;;8.00;68.39;93935.16;4211581;28;20047;-54
2023/02/25 02:10:34;;;;;;;27.35;15.90;;;;;;;7.95;68.30;93920.97;4212807;28;20060;-54
2023/02/25 02:12:41;;;;;;;25.35;14.85;;;;;;;7.94;68.40;93940.22;4210163;28;20055;-53
2023/02/25 02:14:43;;;;;;;24.83;15.20;;;;;;;7.97;68.85;93929.44;4213563;28;20086;-49
2023/02/25 02:16:52;;;;;;;29.80;14.45;;;;;;;7.89;69.21;93929.44;4211257;28;20048;-53
2023/02/25 02:19:00;;;;;;;23.15;14.95;;;;;;;7.87;69.16;93919.19;4212615;28;20051;-53
2023/02/25 02:21:17;;;;;;;32.65;15.07;;;;;;;7.92;69.31;93929.13;4202593;28;20056;-57
2023/02/25 02:23:43;;;;;;;29.60;14.23;;;;;;;8.02;69.08;93921.94;4208725;28;20131;-56
2023/02/25 02:26:09;;;;;;;29.10;14.70;;;;;;;7.99;69.02;93911.84;4185397;28;20444;-53
2023/02/25 02:28:19;;;;;;;28.67;15.82;;;;;;;7.95;69.29;93908.72;4183423;28;20049;-52
2023/02/25 02:30:35;;;;;;;26.95;15.05;;;;;;;8.00;68.79;93914.28;4193107;28;20041;-55
2023/02/25 02:32:47;;;;;;;29.58;14.63;;;;;;;7.96;68.59;93915.59;4212029;28;20064;-52
2023/02/25 02:35:15;;;;;;;32.22;15.07;;;;;;;7.78;69.29;93920.94;4203720;28;20044;-54
2023/02/25 02:37:39;;;;;;;26.10;15.63;;;;;;;7.84;69.28;93919.47;4196318;28;20084;-54
2023/02/25 02:40:15;;;;;;;23.38;14.80;;;;;;;7.75;69.60;93910.03;4197776;28;20102;-51
2023/02/25 02:42:26;;;;;;;27.33;15.55;;;;;;;7.66;70.08;93900.53;4213584;28;20408;-51
2023/02/25 02:44:43;;;;;;;24.48;15.13;;;;;;;7.69;70.14;93906.25;4213599;28;20052;-54
2023/02/25 02:46:48;;;;;;;27.10;15.80;;;;;;;7.80;69.66;93897.31;4204163;28;20055;-55
2023/02/25 02:48:54;;;;;;;25.25;15.65;;;;;;;7.92;69.49;93893.41;4211379;28;20090;-56
2023/02/25 02:51:00;;;;;;;27.95;16.02;;;;;;;7.96;69.12;93892.13;4213740;28;20078;-56
2023/02/25 02:53:31;;;;;;;26.35;14.73;;;;;;;7.77;69.84;93892.44;4212722;28;20059;-53
2023/02/25 02:55:40;;;;;;;27.67;15.00;;;;;;;7.76;69.62;93875.16;4212998;28;20051;-55
2023/02/25 02:57:41;;;;;;;25.02;14.40;;;;;;;7.71;69.90;93874.81;4187501;28;20055;-52
2023/02/25 02:59:50;;;;;;;28.45;15.80;;;;;;;7.78;69.63;93878.41;4212520;28;20086;-54
2023/02/25 03:02:07;;;;;;;28.50;15.30;;;;;;;7.88;69.21;93878.25;4212819;28;20062;-56
2023/02/25 03:04:12;;;;;;;27.73;15.25;;;;;;;7.96;68.67;93886.91;4208212;28;20076;-55
2023/02/25 03:06:18;;;;;;;29.48;16.05;;;;;;;8.03;68.74;93892.28;4203684;28;20056;-52
2023/02/25 03:08:25;;;;;;;27.35;14.07;;;;;;;8.08;68.60;93887.38;4195389;28;20064;-52
2023/02/25 03:10:26;;;;;;;25.02;16.10;;;;;;;8.07;68.89;93890.97;4210161;28;20129;-60
2023/02/25 03:12:28;;;;;;;28.40;14.77;;;;;;;8.12;68.76;93893.91;4206951;28;20040;-54
2023/02/25 03:14:30;;;;;;;26.55;15.38;;;;;;;7.62;69.17;93894.03;4195388;28;20550;-49
2023/02/25 03:16:57;;;;;;;24.92;15.30;;;;;;;7.31;70.42;93895.44;4211245;28;20090;-53
2023/02/25 03:19:04;;;;;;;28.45;16.70;;;;;;;7.14;71.39;93880.72;4191581;28;20466;-55
2023/02/25 03:21:17;;;;;;;28.50;15.60;;;;;;;7.20;71.86;93887.09;4199994;28;20048;-51
2023/02/25 03:23:30;;;;;;;27.52;15.40;;;;;;;7.30;71.37;93880.78;4197931;28;20083;-55
2023/02/25 03:25:35;;;;;;;31.33;16.08;;;;;;;7.36;70.92;93864.50;4185001;28;20131;-55
2023/02/25 03:27:39;;;;;;;32.03;16.33;;;;;;;7.46;70.84;93887.00;4181779;28;20060;-53
2023/02/25 03:29:41;;;;;;;;;;;;;;;7.47;70.87;93901.66;4195729;28;20099;-54
2023/02/25 03:31:48;;;;;;;25.67;16.27;;;;;;;7.37;70.89;93881.75;4197630;28;19928;-53
2023/02/25 03:33:52;;;;;;;29.83;16.40;;;;;;;7.14;71.79;93871.13;4193501;28;20150;-53
2023/02/25 03:35:55;;;;;;;30.33;17.15;;;;;;;7.30;71.66;93880.78;4183991;28;20117;-54
2023/02/25 03:38:07;;;;;;;29.20;17.77;;;;;;;7.42;71.40;93890.91;4193865;28;20078;-56
2023/02/25 03:40:11;;;;;;;31.10;16.15;;;;;;;7.52;70.94;93889.78;4200837;28;20491;-54
2023/02/25 03:42:19;;;;;;;28.52;17.23;;;;;;;7.58;70.43;93890.94;4212440;28;20442;-52
2023/02/25 03:44:24;;;;;;;28.58;16.95;;;;;;;7.67;70.34;93884.75;4212142;28;20044;-53
2023/02/25 03:46:26;;;;;;;34.45;16.77;;;;;;;7.76;69.62;93872.53;4212687;28;20097;-54
2023/02/25 03:48:29;;;;;;;31.60;16.45;;;;;;;7.81;69.37;93875.50;4211756;28;20051;-53
2023/02/25 03:50:34;;;;;;;29.77;16.75;;;;;;;7.71;69.14;93862.59;4213686;28;20052;-52
2023/02/25 03:52:38;;;;;;;27.38;17.17;;;;;;;7.61;70.12;93877.56;4184571;28;20091;-55
2023/02/25 03:54:40;;;;;;;28.90;17.08;;;;;;;7.60;70.06;93870.75;4181060;28;20060;-58
2023/02/25 03:56:43;;;;;;;31.13;17.85;;;;;;;7.35;70.43;93862.06;4181784;28;20427;-57
2023/02/25 03:58:45;;;;;;;32.20;17.40;;;;;;;7.36;71.50;93868.91;4182103;28;20486;-58
2023/02/25 04:00:48;;;;;;;28.63;16.20;;;;;;;7.43;70.90;93875.09;4185403;28;20060;-59
2023/02/25 04:02:50;;;;;;;30.45;17.40;;;;;;;7.49;70.70;93858.03;4195042;28;20067;-58
2023/02/25 04:04:55;;;;;;;32.67;17.23;;;;;;;7.55;70.09;93867.78;4187938;28;20045;-56
2023/02/25 04:06:56;;;;;;;30.05;17.60;;;;;;;7.52;70.52;93873.31;4195409;28;20387;-57
2023/02/25 04:08:58;;;;;;;35.40;19.08;;;;;;;7.53;70.49;93874.97;4194224;28;20068;-60
2023/02/25 04:11:00;;;;;;;28.55;17.23;;;;;;;7.52;70.27;93874.13;4181840;28;20128;-58
2023/02/25 04:13:01;;;;;;;26.05;16.48;;;;;;;7.57;70.33;93897.09;4191644;28;20086;-57
2023/02/25 04:15:07;;;;;;;29.30;18.25;;;;;;;7.59;69.76;93889.94;4185129;28;20064;-59
2023/02/25 04:17:10;;;;;;;31.55;17.75;;;;;;;7.54;69.61;93885.22;4192222;28;20049;-61
2023/02/25 04:19:12;;;;;;;32.97;17.98;;;;;;;7.50;70.14;93880.50;4180305;28;20073;-57
2023/02/25 04:21:34;;;;;;;32.38;19.48;;;;;;;7.50;70.40;93873.47;4193820;28;20052;-60
2023/02/25 04:23:36;;;;;;;31.23;17.80;;;;;;;7.57;69.86;93876.25;4172612;28;20454;-51
2023/02/25 04:25:38;;;;;;;29.48;17.58;;;;;;;7.61;69.70;93869.75;4204639;28;20158;-52
2023/02/25 04:27:48;;;;;;;32.10;18.33;;;;;;;7.57;69.77;93866.66;4198544;28;20142;-54
2023/02/25 04:29:50;;;;;;;32.53;19.10;;;;;;;7.49;70.52;93874.47;4198994;28;20043;-54
2023/02/25 04:31:52;;;;;;;29.35;17.98;;;;;;;7.43;70.80;93863.88;4204772;28;20048;-55
2023/02/25 04:33:56;;;;;;;34.50;18.45;;;;;;;7.45;70.61;93857.53;4204676;28;20144;-55
2023/02/25 04:36:01;;;;;;;30.50;18.45;;;;;;;7.51;70.45;93859.50;4201111;28;20048;-55
2023/02/25 04:38:03;;;;;;;31.60;17.17;;;;;;;7.49;69.85;93858.84;4193124;28;20506;-57
2023/02/25 04:40:12;;;;;;;31.13;17.85;;;;;;;7.50;70.10;93850.03;4200135;28;20067;-53
2023/02/25 04:42:14;;;;;;;33.47;17.73;;;;;;;7.42;70.55;93834.41;4194331;28;20057;-54
2023/02/25 04:44:15;;;;;;;31.02;17.20;;;;;;;7.44;70.45;93826.41;4191837;28;20555;-54
2023/02/25 04:46:17;;;;;;;29.23;16.08;;;;;;;7.38;70.05;93835.69;4211415;28;20052;-54
2023/02/25 04:48:22;;;;;;;28.65;17.42;;;;;;;7.35;70.00;93841.22;4211669;28;20525;-54
2023/02/25 04:50:25;;;;;;;28.95;17.42;;;;;;;7.37;70.19;93834.88;4213025;28;20494;-54
2023/02/25 04:52:27;;;;;;;29.30;17.55;;;;;;;7.38;70.45;93838.31;4213060;28;20387;-55
2023/02/25 04:54:28;;;;;;;27.08;14.88;;;;;;;7.41;69.82;93829.34;4205669;28;20037;-50
2023/02/25 04:56:30;;;;;;;25.33;15.18;;;;;;;7.38;69.86;93810.44;4186918;28;20063;-53
2023/02/25 04:58:32;;;;;;;37.70;16.58;;;;;;;7.39;69.78;93822.50;4196135;28;20079;-55
2023/02/25 05:00:34;;;;;;;22.92;15.27;;;;;;;7.43;69.44;93828.19;4196197;28;20502;-53
2023/02/25 05:02:35;;;;;;;27.65;15.00;;;;;;;7.49;69.29;93811.94;4190256;28;20169;-55
2023/02/25 05:04:38;;;;;;;28.30;15.90;;;;;;;7.50;68.91;93810.94;4179528;28;20434;-54
2023/02/25 05:06:39;;;;;;;26.55;14.68;;;;;;;7.53;68.96;93802.81;4179549;28;20053;-56
2023/02/25 05:08:41;;;;;;;26.42;14.88;;;;;;;7.55;68.85;93813.88;4179594;28;20072;-52
2023/02/25 05:10:43;;;;;;;23.05;14.55;;;;;;;7.55;68.35;93813.88;4185312;28;20052;-51
2023/02/25 05:12:44;;;;;;;29.40;14.85;;;;;;;7.57;68.04;93806.72;4187244;28;20151;-52
2023/02/25 05:14:46;;;;;;;28.92;14.68;;;;;;;7.53;68.70;93799.41;4180284;28;20087;-56
2023/02/25 05:16:48;;;;;;;22.45;13.95;;;;;;;7.54;68.66;93814.03;4209872;28;20135;-55
2023/02/25 05:18:49;;;;;;;30.88;15.93;;;;;;;7.36;68.51;93799.38;4210092;28;20048;-54
2023/02/25 05:20:51;;;;;;;27.33;14.18;;;;;;;6.77;71.00;93785.56;4200037;28;20540;-52
2023/02/25 05:22:57;;;;;;;27.15;15.68;;;;;;;6.64;71.76;93812.03;4211931;28;20043;-54
2023/02/25 05:24:59;;;;;;;27.50;15.68;;;;;;;6.78;71.75;93822.84;4211345;28;20063;-53
2023/02/25 05:27:07;;;;;;;26.65;15.10;;;;;;;6.98;71.72;93813.78;4191294;28;20053;-57
2023/02/25 05:29:10;;;;;;;27.35;15.57;;;;;;;6.97;71.19;93804.38;4179568;28;20082;-54
2023/02/25 05:31:11;;;;;;;26.70;16.63;;;;;;;6.90;71.24;93822.38;4179410;28;20045;-54
2023/02/25 05:33:13;;;;;;;28.75;16.48;;;;;;;6.94;70.76;93838.50;4178137;28;20051;-51
2023/02/25 05:35:15;;;;;;;35.95;17.73;;;;;;;6.69;71.45;93837.59;4183050;28;20068;-55
2023/02/25 05:37:16;;;;;;;32.65;18.02;;;;;;;6.68;71.89;93841.19;4181594;28;20053;-55
2023/02/25 05:39:21;;;;;;;31.30;17.75;;;;;;;6.76;71.89;93851.63;4199678;28;20053;-55
2023/02/25 05:41:24;;;;;;;31.85;18.20;;;;;;;6.90;71.37;93851.03;4214057;28;20541;-55
2023/02/25 05:43:26;;;;;;;31.20;19.70;;;;;;;6.85;71.00;93845.47;4215480;28;20044;-57
2023/02/25 05:45:28;;;;;;;35.17;20.90;;;;;;;6.83;71.46;93855.22;4216021;28;20730;-56
2023/02/25 05:47:33;;;;;;;33.35;20.85;;;;;;;6.94;71.17;93854.13;4214414;28;20055;-55
2023/02/25 05:49:34;;;;;;;35.17;19.92;;;;;;;7.05;71.07;93860.84;4214932;28;20084;-55
2023/02/25 05:51:36;;;;;;;32.75;18.00;;;;;;;7.14;70.91;93839.03;4215360;28;20098;-56
2023/02/25 05:53:38;;;;;;;29.42;18.20;;;;;;;7.26;71.05;93844.78;4205676;28;20693;-55
2023/02/25 05:55:41;;;;;;;34.85;18.20;;;;;;;7.37;70.87;93854.91;4186745;28;20049;-55
2023/02/25 05:57:42;;;;;;;29.13;17.20;;;;;;;7.42;69.83;93867.44;4199482;28;20076;-54
2023/02/25 05:59:44;;;;;;;32.45;18.33;;;;;;;7.47;69.75;93859.97;4193036;28;20533;-54
2023/02/25 06:01:46;;;;;;;33.65;18.23;;;;;;;7.47;70.52;93852.16;4194502;28;20127;-58
2023/02/25 06:03:48;;;;;;;32.38;17.55;;;;;;;7.53;69.99;93843.69;4198514;28;20071;-59
2023/02/25 06:05:52;;;;;;;34.60;18.85;;;;;;;7.65;70.21;93857.22;4195659;28;20060;-56
2023/02/25 06:07:53;;;;;;;32.05;18.50;;;;;;;7.74;69.95;93866.66;4190360;28;20061;-54
2023/02/25 06:09:59;;;;;;;29.60;17.58;;;;;;;7.84;69.27;93863.91;4199993;28;20052;-55
2023/02/25 06:12:01;;;;;;;29.20;17.70;;;;;;;7.82;69.19;93847.63;4188016;28;20481;-54
2023/02/25 06:14:02;;;;;;;33.95;17.77;;;;;;;7.75;69.46;93856.09;4194147;28;20215;-59
2023/02/25 06:16:05;;;;;;;29.13;17.33;;;;;;;7.77;69.60;93866.38;4182716;28;20052;-58
2023/02/25 06:18:07;;;;;;;28.48;17.65;;;;;;;7.78;69.58;93855.75;4182900;28;20060;-61
2023/02/25 06:20:10;;;;;;;33.17;17.52;;;;;;;7.82;69.68;93863.25;4189193;28;20135;-59
2023/02/25 06:22:12;;;;;;;33.10;17.15;;;;;;;7.71;69.56;93851.38;4187853;28;20056;-62
2023/02/25 06:24:15;;;;;;;28.83;16.88;;;;;;;7.79;69.93;93854.78;4208891;28;20044;-59
2023/02/25 06:26:17;;;;;;;33.45;16.80;;;;;;;7.90;69.45;93855.44;4214022;28;20083;-62
2023/02/25 06:28:18;;;;;;;32.78;17.80;;;;;;;7.86;69.59;93859.34;4214797;28;20048;-61
2023/02/25 06:30:20;;;;;;;26.80;16.73;;;;;;;7.88;69.30;93853.00;4214755;28;20082;-59
2023/02/25 06:32:22;;;;;;;30.58;18.15;;;;;;;7.88;69.10;93854.78;4198364;28;20159;-60
2023/02/25 06:34:24;;;;;;;32.33;18.73;;;;;;;7.96;69.52;93871.25;4209522;28;20554;-54
2023/02/25 06:36:25;;;;;;;29.33;17.58;;;;;;;7.97;69.10;93877.28;4198009;28;20152;-56
2023/02/25 06:38:27;;;;;;;33.08;17.38;;;;;;;8.01;69.11;93878.59;4206639;28;20465;-56
2023/02/25 06:40:36;;;;;;;33.40;18.27;;;;;;;8.08;68.45;93868.31;4204456;28;20462;-51
2023/02/25 06:42:38;;;;;;;33.38;18.58;;;;;;;7.98;69.42;93868.50;4186122;28;20559;-54
2023/02/25 06:44:40;;;;;;;31.77;16.35;;;;;;;8.02;68.82;93874.97;4181900;28;20074;-56
2023/02/25 06:46:41;;;;;;;29.33;17.30;;;;;;;8.09;68.91;93870.75;4182041;28;20053;-55
2023/02/25 06:48:43;;;;;;;29.30;18.27;;;;;;;8.21;68.84;93869.41;4198467;28;20101;-55
2023/02/25 06:50:45;;;;;;;33.35;17.88;;;;;;;8.10;68.43;93864.56;4214580;28;20055;-56
2023/02/25 06:52:46;;;;;;;27.25;17.17;;;;;;;8.23;68.40;93863.25;4214592;28;20044;-53
2023/02/25 06:54:49;;;;;;;34.60;17.88;;;;;;;8.26;69.22;93853.31;4208064;28;20094;-56
2023/02/25 06:56:52;;;;;;;36.97;19.48;;;;;;;8.30;68.37;93843.31;4207787;28;20056;-55
2023/02/25 06:58:55;;;;;;;40.00;18.63;;;;;;;8.33;68.51;93840.41;4213839;28;20093;-57
2023/02/25 07:00:57;;;;;;;29.65;18.10;;;;;;;8.38;68.22;93831.06;4211884;28;20581;-55
2023/02/25 07:03:01;;;;;;;28.25;16.67;;;;;;;8.54;68.42;93834.66;4198749;28;20132;-51
2023/02/25 07:05:04;;;;;;;29.55;16.48;;;;;;;8.60;67.42;93842.66;4202116;28;20047;-59
2023/02/25 07:07:06;;;;;;;36.25;17.25;;;;;;;8.63;67.90;93819.81;4187233;28;20067;-61
2023/02/25 07:09:08;;;;;;;31.88;17.73;;;;;;;8.71;67.40;93809.31;4193894;28;20629;-61
2023/02/25 07:11:25;;;;;;;29.45;15.55;;;;;;;8.81;66.95;93809.91;4180504;28;20053;-61
2023/02/25 07:13:27;;;;;;;27.60;16.70;;;;;;;8.90;67.18;93806.28;4195588;28;20052;-58
2023/02/25 07:15:29;;;;;;;33.67;16.45;;;;;;;9.00;66.93;93809.50;4198381;28;20072;-60
2023/02/25 07:17:30;;;;;;;28.70;17.15;;;;;;;9.10;66.27;93798.00;4196969;28;20470;-61
2023/02/25 07:19:32;;;;;;;28.15;15.15;;;;;;;9.04;65.92;93796.13;4197488;28;20549;-61
2023/02/25 07:21:33;;;;;;;30.58;15.15;;;;;;;9.07;65.59;93806.22;4190507;28;20049;-61
2023/02/25 07:23:35;;;;;;;30.75;15.07;;;;;;;9.11;66.25;93810.09;4189467;28;20710;-61
2023/02/25 07:25:37;;;;;;;30.92;15.75;;;;;;;9.22;66.88;93807.91;4186752;28;20057;-60
2023/02/25 07:27:40;;;;;;;24.77;15.88;;;;;;;9.27;65.69;93785.66;4192740;28;20794;-61
2023/02/25 07:29:45;;;;;;;33.97;15.35;;;;;;;9.27;66.19;93785.66;4181749;28;20056;-61
2023/02/25 07:31:46;;;;;;;27.80;14.80;;;;;;;9.34;65.76;93776.97;4191449;28;20049;-60
2023/02/25 07:33:49;;;;;;;26.45;14.80;;;;;;;9.39;65.46;93763.38;4195886;28;20059;-54
2023/02/25 07:35:53;;;;;;;37.28;16.02;;;;;;;9.28;65.17;93772.44;4184747;28;20052;-57
2023/02/25 07:37:55;;;;;;;31.27;15.02;;;;;;;9.34;65.18;93779.59;4195223;28;20056;-56
2023/02/25 07:39:59;;;;;;;33.05;15.00;;;;;;;9.48;65.24;93764.13;4200216;28;20044;-54
2023/02/25 07:42:01;;;;;;;25.70;14.45;;;;;;;9.51;64.89;93756.75;4206060;28;20079;-55
2023/02/25 07:44:05;;;;;;;36.22;15.40;;;;;;;9.60;64.61;93765.34;4187859;28;20127;-56
2023/02/25 07:46:07;;;;;;;28.02;13.98;;;;;;;9.63;64.14;93759.75;4184560;28;20131;-54
2023/02/25 07:48:12;;;;;;;29.17;14.20;;;;;;;9.68;63.65;93746.16;4181522;28;20406;-57
2023/02/25 07:50:14;;;;;;;27.10;14.15;;;;;;;9.74;63.55;93737.59;4182618;28;20064;-55
2023/02/25 07:52:15;;;;;;;24.33;13.63;;;;;;;9.79;63.60;93732.66;4193919;28;20063;-56
2023/02/25 07:54:20;;;;;;;32.03;15.50;;;;;;;9.87;62.90;93742.22;4200471;28;20084;-58
2023/02/25 07:56:23;;;;;;;34.83;15.48;;;;;;;9.98;62.96;93741.78;4208214;28;20052;-58
2023/02/25 07:58:27;;;;;;;28.15;15.45;;;;;;;10.08;62.47;93721.41;4188546;28;20106;-55
2023/02/25 08:00:29;;;;;;;32.58;14.15;;;;;;;10.09;61.95;93715.19;4195433;28;20049;-55
2023/02/25 08:02:30;;;;;;;30.25;13.63;;;;;;;10.12;61.88;93714.81;4193964;28;20082;-59
2023/02/25 08:04:32;;;;;;;31.13;14.18;;;;;;;10.09;61.33;93712.56;4182629;28;20045;-56
2023/02/25 08:06:36;;;;;;;25.33;13.32;;;;;;;10.20;62.29;93722.59;4191105;28;20181;-55
2023/02/25 08:08:38;;;;;;;;;;;;;;;10.12;61.73;93708.78;4198913;28;20572;-55
2023/02/25 08:10:39;;;;;;;27.77;13.25;;;;;;;9.95;61.86;93701.09;4194945;28;19921;-54
2023/02/25 08:12:41;;;;;;;26.65;14.20;;;;;;;9.99;62.45;93718.06;4181704;28;20132;-53
2023/02/25 08:14:45;;;;;;;33.88;14.15;;;;;;;10.12;62.35;93722.66;4182326;28;20090;-55
2023/02/25 08:16:47;;;;;;;32.45;13.23;;;;;;;10.16;61.38;93708.25;4183980;28;20136;-56
2023/02/25 08:18:51;;;;;;;24.70;12.65;;;;;;;10.29;60.81;93707.63;4184563;28;20056;-55
2023/02/25 08:20:54;;;;;;;30.45;12.93;;;;;;;10.35;60.79;93716.56;4195960;28;20144;-53
2023/02/25 08:22:57;;;;;;;28.52;12.90;;;;;;;10.32;60.79;93722.16;4186821;28;20052;-58
2023/02/25 08:24:59;;;;;;;25.85;12.75;;;;;;;10.50;61.42;93722.59;4199470;28;20099;-59
2023/02/25 08:27:01;;;;;;;37.22;13.38;;;;;;;10.50;60.02;93706.91;4201240;28;20547;-62
2023/02/25 08:29:03;;;;;;;27.98;13.23;;;;;;;10.55;59.94;93696.69;4212035;28;20431;-60
2023/02/25 08:31:07;;;;;;;33.63;13.57;;;;;;;10.61;59.85;93706.41;4200714;28;20078;-61
2023/02/25 08:33:09;;;;;;;27.90;13.20;;;;;;;10.59;59.95;93711.03;4211633;28;20093;-61
2023/02/25 08:35:13;;;;;;;32.28;13.05;;;;;;;10.70;59.62;93695.84;4212912;28;20127;-61
2023/02/25 08:37:15;;;;;;;31.40;13.77;;;;;;;10.71;59.57;93705.31;4212246;28;20063;-62
2023/02/25 08:39:20;;;;;;;36.05;15.05;;;;;;;10.55;59.96;93691.44;4203003;28;20425;-61
2023/02/25 08:41:23;;;;;;;33.20;14.13;;;;;;;10.24;60.10;93704.72;4211013;28;20117;-62
2023/02/25 08:43:25;;;;;;;26.52;12.65;;;;;;;10.38;60.39;93701.28;4206407;28;20484;-61
2023/02/25 08:45:27;;;;;;;32.55;13.18;;;;;;;10.49;59.88;93680.88;4212517;28;20079;-53
2023/02/25 08:47:29;;;;;;;28.02;12.80;;;;;;;10.45;60.09;93688.28;4211813;28;20131;-57
2023/02/25 08:49:30;;;;;;;28.98;13.38;;;;;;;10.57;59.74;93673.75;4211345;28;20056;-55
2023/02/25 08:51:35;;;;;;;24.83;12.75;;;;;;;10.61;59.27;93677.63;4212141;28;20558;-54
2023/02/25 08:53:38;;;;;;;23.25;13.18;;;;;;;10.59;59.44;93674.38;4212744;28;20052;-57
2023/02/25 08:55:40;;;;;;;40.78;14.15;;;;;;;10.69;59.38;93683.72;4211315;28;20048;-58
2023/02/25 08:57:42;;;;;;;30.40;14.30;;;;;;;10.73;59.35;93680.56;4212109;28;20055;-58
2023/02/25 08:59:44;;;;;;;33.30;14.75;;;;;;;10.83;59.33;93690.75;4212690;28;20048;-56
2023/02/25 09:01:50;;;;;;;30.48;14.80;;;;;;;10.90;58.69;93689.00;4212206;28;20048;-56
2023/02/25 09:03:52;;;;;;;32.72;15.27;;;;;;;10.89;58.64;93682.16;4210449;28;20048;-57
2023/02/25 09:05:55;;;;;;;40.50;16.30;;;;;;;10.89;59.39;93681.34;4212199;28;20089;-55
2023/02/25 09:07:59;;;;;;;45.05;16.58;;;;;;;10.75;58.87;93667.28;4212447;28;20164;-57
2023/02/25 09:10:05;;;;;;;34.30;16.35;;;;;;;10.42;59.72;93660.66;4212357;28;20470;-58
2023/02/25 09:12:07;;;;;;;32.10;16.35;;;;;;;10.27;60.68;93669.53;4188037;28;20052;-52
2023/02/25 09:14:09;;;;;;;38.60;15.88;;;;;;;10.34;60.51;93658.16;4211526;28;20052;-56
2023/02/25 09:16:15;;;;;;;33.75;15.98;;;;;;;10.25;61.06;93649.56;4211885;28;20052;-55
2023/02/25 09:18:17;;;;;;;33.78;16.10;;;;;;;10.30;61.49;93666.56;4207923;28;20134;-55
2023/02/25 09:20:19;;;;;;;37.63;16.73;;;;;;;10.06;61.51;93650.13;4188469;28;20056;-55
2023/02/25 09:22:21;;;;;;;28.85;15.13;;;;;;;10.09;61.98;93672.50;4207763;28;20083;-58
2023/02/25 09:24:22;;;;;;;30.02;16.48;;;;;;;10.09;62.12;93651.56;4212189;28;20652;-58
2023/02/25 09:26:24;;;;;;;35.28;17.23;;;;;;;10.12;62.13;93665.09;4212504;28;20101;-57
2023/02/25 09:28:26;;;;;;;29.48;15.90;;;;;;;10.16;61.98;93657.72;4212348;28;20146;-52
2023/02/25 09:30:27;;;;;;;30.45;16.83;;;;;;;10.21;62.05;93652.72;4212140;28;20063;-55
2023/02/25 09:32:29;;;;;;;35.78;16.50;;;;;;;10.31;61.10;93653.28;4203770;28;20101;-57
2023/02/25 09:34:34;;;;;;;46.72;16.10;;;;;;;10.15;62.04;93633.34;4212022;28;20048;-58
2023/02/25 09:36:36;;;;;;;37.13;15.52;;;;;;;10.02;62.44;93633.16;4212426;28;20052;-54
2023/02/25 09:38:40;;;;;;;36.38;15.38;;;;;;;9.96;62.60;93639.94;4207230;28;20056;-58